Time;durP1;ratioP1;P1;durP2;ratioP2;P2;SDS_P1;SDS_P2;PMS_P1;PMS_P2;Temp;Humidity;BMP_temperature;BMP_pressure;BME280_temperature;BME280_humidity;BME280_pressure;Samples;Min_cycle;Max_cycle;Signal;HPM_P1;HPM_P2
2022/07/01 00:00:47;;;;;;;3.92;2.08;;;;;;;;;;5093498;28;20024;-84
2022/07/01 00:03:12;;;;;;;3.10;1.83;;;;;;;;;;5094622;28;20031;-84
2022/07/01 00:05:37;;;;;;;2.42;1.60;;;;;;;;;;5092151;28;20028;-84
2022/07/01 00:08:03;;;;;;;3.30;2.17;;;;;;;;;;5094749;28;20215;-84
2022/07/01 00:10:29;;;;;;;3.00;1.90;;;;;;;;;;5092596;28;20044;-84
2022/07/01 00:12:54;;;;;;;2.60;2.08;;;;;;;;;;5093909;28;20111;-85
2022/07/01 00:15:20;;;;;;;2.67;2.00;;;;;;;;;;5093582;28;20065;-85
2022/07/01 00:17:45;;;;;;;2.83;2.00;;;;;;;;;;5094807;28;20488;-84
2022/07/01 00:20:11;;;;;;;2.22;1.92;;;;;;;;;;5093534;28;20024;-83
2022/07/01 00:22:36;;;;;;;3.55;2.22;;;;;;;;;;5094140;28;20492;-85
2022/07/01 00:25:03;;;;;;;4.63;2.13;;;;;;;;;;5094757;28;20085;-84
2022/07/01 00:27:28;;;;;;;4.35;2.38;;;;;;;;;;5094486;28;20031;-84
2022/07/01 00:29:53;;;;;;;2.63;2.30;;;;;;;;;;5093260;28;20039;-84
2022/07/01 00:32:19;;;;;;;2.95;2.05;;;;;;;;;;5093228;28;20028;-84
2022/07/01 00:34:44;;;;;;;4.90;2.40;;;;;;;;;;5094242;28;20023;-84
2022/07/01 00:37:10;;;;;;;4.15;2.40;;;;;;;;;;5094124;28;20036;-85
2022/07/01 00:39:36;;;;;;;7.18;2.50;;;;;;;;;;5094174;28;20028;-85
2022/07/01 00:42:03;;;;;;;2.63;2.35;;;;;;;;;;5090634;28;20024;-84
2022/07/01 00:44:29;;;;;;;3.83;2.60;;;;;;;;;;5094137;28;20031;-83
2022/07/01 00:46:57;;;;;;;2.55;2.35;;;;;;;;;;5093515;28;20034;-84
2022/07/01 00:49:23;;;;;;;3.15;2.60;;;;;;;;;;5087510;28;20111;-83
2022/07/01 00:51:49;;;;;;;3.33;2.50;;;;;;;;;;5092669;28;20068;-83
2022/07/01 00:54:15;;;;;;;3.53;3.00;;;;;;;;;;5092298;28;20071;-83
2022/07/01 00:56:41;;;;;;;2.67;2.47;;;;;;;;;;5092580;28;20095;-83
2022/07/01 00:59:07;;;;;;;4.50;2.65;;;;;;;;;;5093496;28;20119;-83
2022/07/01 01:01:32;;;;;;;4.70;3.10;;;;;;;;;;5093617;28;20028;-86
2022/07/01 01:03:58;;;;;;;3.25;2.60;;;;;;;;;;5093620;28;20063;-83
2022/07/01 01:06:24;;;;;;;4.07;2.58;;;;;;;;;;5093612;28;20032;-83
2022/07/01 01:08:49;;;;;;;3.58;2.83;;;;;;;;;;5092418;28;20050;-84
2022/07/01 01:11:16;;;;;;;4.68;3.08;;;;;;;;;;5093524;28;20310;-81
2022/07/01 01:13:42;;;;;;;3.13;2.75;;;;;;;;;;5090251;28;20040;-84
2022/07/01 01:16:08;;;;;;;3.15;2.78;;;;;;;;;;5093288;28;20024;-83
2022/07/01 01:18:34;;;;;;;3.38;3.00;;;;;;;;;;5092523;28;20107;-83
2022/07/01 01:21:01;;;;;;;3.03;2.72;;;;;;;;;;5094111;28;20024;-83
2022/07/01 01:23:27;;;;;;;4.05;2.70;;;;;;;;;;5094132;28;20051;-84
2022/07/01 01:25:52;;;;;;;4.63;3.08;;;;;;;;;;5093552;28;20136;-83
2022/07/01 01:28:18;;;;;;;3.47;2.92;;;;;;;;;;5093328;28;20095;-83
2022/07/01 01:30:43;;;;;;;3.30;2.90;;;;;;;;;;5091849;28;20763;-83
2022/07/01 01:33:11;;;;;;;5.18;2.85;;;;;;;;;;5092487;28;20529;-83
2022/07/01 01:35:37;;;;;;;3.17;2.70;;;;;;;;;;5091184;28;20042;-84
2022/07/01 01:38:02;;;;;;;4.07;2.83;;;;;;;;;;5093354;28;20511;-84
2022/07/01 01:40:28;;;;;;;3.15;2.60;;;;;;;;;;5093235;28;20032;-84
2022/07/01 01:42:53;;;;;;;3.22;2.80;;;;;;;;;;5088555;28;20039;-84
2022/07/01 01:45:19;;;;;;;4.00;2.80;;;;;;;;;;5093390;28;20114;-84
2022/07/01 01:47:44;;;;;;;2.63;2.42;;;;;;;;;;5092918;28;20028;-83
2022/07/01 01:50:12;;;;;;;3.35;2.80;;;;;;;;;;5092846;28;20028;-83
2022/07/01 01:52:38;;;;;;;3.03;2.60;;;;;;;;;;5092480;28;20040;-84
2022/07/01 01:55:04;;;;;;;5.30;2.85;;;;;;;;;;5093023;28;20024;-84
2022/07/01 01:57:30;;;;;;;3.08;2.42;;;;;;;;;;5093326;28;20103;-84
2022/07/01 01:59:55;;;;;;;2.65;2.40;;;;;;;;;;5092734;28;20047;-84
2022/07/01 02:02:20;;;;;;;6.78;2.70;;;;;;;;;;5093228;28;20134;-84
2022/07/01 02:04:46;;;;;;;3.13;2.70;;;;;;;;;;5092826;28;20109;-82
2022/07/01 02:07:12;;;;;;;2.67;2.28;;;;;;;;;;5091118;28;20054;-82
2022/07/01 02:09:37;;;;;;;4.20;2.42;;;;;;;;;;5091491;28;20399;-83
2022/07/01 02:12:04;;;;;;;3.35;2.25;;;;;;;;;;5091032;28;20052;-82
2022/07/01 02:14:29;;;;;;;2.80;2.45;;;;;;;;;;5092714;28;20059;-82
2022/07/01 02:16:55;;;;;;;2.95;2.65;;;;;;;;;;5092269;28;20539;-84
2022/07/01 02:19:20;;;;;;;2.90;2.50;;;;;;;;;;5092101;28;20032;-84
2022/07/01 02:21:46;;;;;;;3.42;2.58;;;;;;;;;;5092855;28;20048;-83
2022/07/01 02:24:11;;;;;;;3.60;2.50;;;;;;;;;;5091234;28;20137;-85
2022/07/01 02:26:36;;;;;;;3.83;2.90;;;;;;;;;;5092317;28;20383;-84
2022/07/01 02:29:03;;;;;;;4.40;2.83;;;;;;;;;;5092363;28;20032;-85
2022/07/01 02:31:28;;;;;;;5.15;2.75;;;;;;;;;;5091066;28;20527;-84
2022/07/01 02:33:53;;;;;;;3.58;2.75;;;;;;;;;;5092269;28;20138;-85
2022/07/01 02:36:20;;;;;;;3.13;2.70;;;;;;;;;;5092189;28;20157;-84
2022/07/01 02:38:45;;;;;;;3.60;2.65;;;;;;;;;;5090997;28;20391;-84
2022/07/01 02:41:11;;;;;;;3.60;2.58;;;;;;;;;;5092051;28;20026;-84
2022/07/01 02:43:36;;;;;;;4.05;2.45;;;;;;;;;;5090877;28;20020;-85
2022/07/01 02:46:02;;;;;;;3.90;2.60;;;;;;;;;;5092116;28;20055;-85
2022/07/01 02:48:27;;;;;;;3.90;2.88;;;;;;;;;;5091327;28;20040;-85
2022/07/01 02:50:54;;;;;;;3.58;2.80;;;;;;;;;;5092426;28;20022;-84
2022/07/01 02:53:19;;;;;;;3.08;2.50;;;;;;;;;;5090267;28;20050;-84
2022/07/01 02:55:45;;;;;;;2.63;2.38;;;;;;;;;;5091501;28;20032;-84
2022/07/01 02:58:10;;;;;;;3.97;2.63;;;;;;;;;;5087532;28;20028;-84
2022/07/01 03:00:36;;;;;;;4.68;2.85;;;;;;;;;;5092072;28;20032;-85
2022/07/01 03:03:03;;;;;;;2.85;2.55;;;;;;;;;;5091568;28;20024;-85
2022/07/01 03:05:28;;;;;;;4.00;2.85;;;;;;;;;;5091516;28;20833;-84
2022/07/01 03:07:54;;;;;;;2.80;2.60;;;;;;;;;;5091885;28;20064;-84
2022/07/01 03:10:19;;;;;;;3.38;2.75;;;;;;;;;;5092035;28;20101;-84
2022/07/01 03:12:44;;;;;;;3.50;2.63;;;;;;;;;;5091363;28;20040;-85
2022/07/01 03:15:12;;;;;;;3.30;2.60;;;;;;;;;;5091508;28;20460;-84
2022/07/01 03:17:40;;;;;;;3.58;2.75;;;;;;;;;;5090501;28;20024;-84
2022/07/01 03:20:07;;;;;;;4.28;3.08;;;;;;;;;;5090334;28;20028;-84
2022/07/01 03:22:33;;;;;;;3.85;2.78;;;;;;;;;;5090915;28;20093;-84
2022/07/01 03:24:59;;;;;;;3.30;2.45;;;;;;;;;;5091413;28;20460;-85
2022/07/01 03:27:26;;;;;;;4.18;2.65;;;;;;;;;;5091775;28;20019;-85
2022/07/01 03:29:52;;;;;;;3.75;2.65;;;;;;;;;;5089006;28;20472;-84
2022/07/01 03:32:18;;;;;;;2.63;2.20;;;;;;;;;;5091140;28;20047;-85
2022/07/01 03:34:46;;;;;;;2.85;2.55;;;;;;;;;;5090453;28;20024;-84
2022/07/01 03:37:13;;;;;;;3.80;2.60;;;;;;;;;;5090579;28;20027;-85
2022/07/01 03:39:39;;;;;;;4.22;2.90;;;;;;;;;;5091543;28;20027;-84
2022/07/01 03:42:07;;;;;;;3.53;2.60;;;;;;;;;;5091462;28;20104;-84
2022/07/01 03:44:33;;;;;;;3.53;2.75;;;;;;;;;;5091468;28;20426;-83
2022/07/01 03:46:59;;;;;;;3.05;2.72;;;;;;;;;;5090029;28;20043;-85
2022/07/01 03:49:25;;;;;;;3.75;2.67;;;;;;;;;;5090136;28;20051;-84
2022/07/01 03:51:51;;;;;;;3.83;2.50;;;;;;;;;;5089793;28;20150;-85
2022/07/01 03:54:38;;;;;;;3.58;2.63;;;;;;;;;;5088571;28;20061;-84
2022/07/01 03:57:09;;;;;;;2.80;2.58;;;;;;;;;;5088473;28;20034;-84
2022/07/01 03:59:40;;;;;;;3.88;2.50;;;;;;;;;;5088793;28;20433;-84
2022/07/01 04:02:06;;;;;;;2.78;2.58;;;;;;;;;;5090891;28;20131;-84
2022/07/01 04:04:32;;;;;;;3.17;2.60;;;;;;;;;;5089527;28;20024;-84
2022/07/01 04:06:59;;;;;;;4.50;2.50;;;;;;;;;;5089175;28;20024;-84
2022/07/01 04:09:26;;;;;;;4.35;2.83;;;;;;;;;;5089499;28;20034;-84
2022/07/01 04:11:53;;;;;;;3.97;3.10;;;;;;;;;;5088880;28;20038;-85
2022/07/01 04:14:19;;;;;;;4.00;3.10;;;;;;;;;;5089522;28;20028;-85
2022/07/01 04:16:45;;;;;;;3.67;2.95;;;;;;;;;;5094347;28;20073;-85
2022/07/01 04:19:12;;;;;;;5.43;3.05;;;;;;;;;;5089608;28;20487;-84
2022/07/01 04:24:25;;;;;;;6.63;3.00;;;;;;;;;;5094795;28;20074;-85
2022/07/01 04:26:51;;;;;;;3.58;3.03;;;;;;;;;;5090436;28;20024;-85
2022/07/01 04:29:17;;;;;;;3.83;3.17;;;;;;;;;;5092401;28;20047;-85
2022/07/01 04:31:43;;;;;;;3.83;2.85;;;;;;;;;;5094320;28;20027;-84
2022/07/01 04:34:09;;;;;;;4.15;2.90;;;;;;;;;;5092630;28;20031;-83
2022/07/01 04:36:35;;;;;;;5.35;2.70;;;;;;;;;;5093118;28;20519;-83
2022/07/01 04:39:01;;;;;;;3.33;3.03;;;;;;;;;;5093207;28;20365;-84
2022/07/01 04:44:10;;;;;;;4.47;3.00;;;;;;;;;;5090259;28;20112;-84
2022/07/01 04:46:36;;;;;;;3.60;2.58;;;;;;;;;;5093832;28;20106;-85
2022/07/01 04:49:01;;;;;;;3.22;2.85;;;;;;;;;;5093704;28;20073;-85
2022/07/01 04:51:26;;;;;;;2.67;2.42;;;;;;;;;;5091409;28;20024;-85
2022/07/01 04:53:52;;;;;;;6.10;2.90;;;;;;;;;;5093700;28;20059;-85
2022/07/01 04:56:18;;;;;;;5.68;2.90;;;;;;;;;;5092149;28;20053;-85
2022/07/01 04:58:43;;;;;;;5.15;2.95;;;;;;;;;;5093507;28;20460;-84
2022/07/01 05:01:09;;;;;;;3.25;2.70;;;;;;;;;;5092349;28;20077;-85
2022/07/01 05:03:34;;;;;;;3.80;2.75;;;;;;;;;;5090275;28;20111;-84
2022/07/01 05:06:00;;;;;;;6.18;3.20;;;;;;;;;;5092460;28;20059;-83
2022/07/01 05:08:25;;;;;;;2.88;2.60;;;;;;;;;;5090764;28;20020;-83
2022/07/01 05:10:51;;;;;;;5.20;2.92;;;;;;;;;;5090267;28;20020;-83
2022/07/01 05:13:16;;;;;;;4.10;2.65;;;;;;;;;;5093036;28;20544;-84
2022/07/01 05:15:42;;;;;;;4.60;3.00;;;;;;;;;;5092667;28;20024;-83
2022/07/01 05:23:35;;;;;;;7.07;3.45;;;;;;;;;;5089488;28;20039;-83
2022/07/01 05:26:02;;;;;;;6.38;3.88;;;;;;;;;;5092712;28;20028;-83
2022/07/01 05:28:27;;;;;;;4.15;3.03;;;;;;;;;;5086257;28;20415;-84
2022/07/01 05:30:53;;;;;;;4.60;3.50;;;;;;;;;;5091797;28;20036;-84
2022/07/01 05:33:21;;;;;;;5.13;3.13;;;;;;;;;;5089123;28;20034;-84
2022/07/01 05:35:46;;;;;;;5.05;3.42;;;;;;;;;;5091033;28;20118;-85
2022/07/01 05:38:12;;;;;;;4.07;3.30;;;;;;;;;;5091101;28;20086;-84
2022/07/01 05:40:37;;;;;;;5.53;3.30;;;;;;;;;;5091058;28;20173;-84
2022/07/01 05:43:03;;;;;;;6.13;3.47;;;;;;;;;;5091865;28;20023;-85
2022/07/01 05:45:28;;;;;;;5.80;3.83;;;;;;;;;;5089338;28;20072;-84
2022/07/01 05:47:53;;;;;;;5.82;4.00;;;;;;;;;;5087270;28;20020;-83
2022/07/01 05:50:20;;;;;;;6.70;4.80;;;;;;;;;;5088978;28;20024;-85
2022/07/01 05:52:45;;;;;;;7.18;4.00;;;;;;;;;;5088484;28;20399;-84
2022/07/01 05:55:11;;;;;;;8.20;4.50;;;;;;;;;;5089729;28;20102;-83
2022/07/01 05:57:37;;;;;;;7.18;4.40;;;;;;;;;;5086011;28;20024;-84
2022/07/01 06:00:04;;;;;;;5.90;3.58;;;;;;;;;;5089625;28;20537;-83
2022/07/01 06:02:29;;;;;;;7.85;5.07;;;;;;;;;;5087655;28;20537;-83
2022/07/01 06:04:55;;;;;;;7.45;4.03;;;;;;;;;;5087874;28;20191;-86
2022/07/01 06:07:20;;;;;;;7.30;3.95;;;;;;;;;;5091618;28;20032;-82
2022/07/01 06:09:45;;;;;;;6.35;4.43;;;;;;;;;;5090213;28;20024;-81
2022/07/01 06:12:11;;;;;;;7.22;3.88;;;;;;;;;;5090175;28;20016;-83
2022/07/01 06:14:37;;;;;;;6.18;3.47;;;;;;;;;;5088810;28;20032;-83
2022/07/01 06:17:04;;;;;;;4.60;3.22;;;;;;;;;;5119062;27;20107;-83
2022/07/01 06:19:29;;;;;;;6.63;4.30;;;;;;;;;;5086995;28;20460;-82
2022/07/01 06:21:56;;;;;;;8.00;4.25;;;;;;;;;;5090783;28;20031;-81
2022/07/01 06:24:22;;;;;;;3.53;3.22;;;;;;;;;;5091170;28;20423;-84
2022/07/01 06:26:48;;;;;;;6.22;3.60;;;;;;;;;;5090982;28;20063;-84
2022/07/01 06:29:13;;;;;;;7.30;4.10;;;;;;;;;;5089556;28;20048;-85
2022/07/01 06:31:39;;;;;;;8.82;3.90;;;;;;;;;;5090486;28;20070;-85
2022/07/01 06:34:04;;;;;;;7.10;4.57;;;;;;;;;;5088575;28;20016;-85
2022/07/01 06:36:29;;;;;;;7.38;3.80;;;;;;;;;;5089652;28;20024;-84
2022/07/01 06:38:55;;;;;;;7.55;4.20;;;;;;;;;;5084924;28;20062;-84
2022/07/01 06:41:26;;;;;;;6.25;3.58;;;;;;;;;;5087003;28;20447;-84
2022/07/01 06:43:53;;;;;;;4.75;3.80;;;;;;;;;;5087213;28;20028;-84
2022/07/01 06:46:19;;;;;;;5.47;3.78;;;;;;;;;;5086492;28;20036;-84
2022/07/01 06:48:45;;;;;;;9.63;4.10;;;;;;;;;;5089055;28;20111;-84
2022/07/01 06:51:10;;;;;;;7.85;3.92;;;;;;;;;;5086090;28;20114;-82
2022/07/01 06:53:35;;;;;;;6.10;4.03;;;;;;;;;;5087934;28;20039;-85
2022/07/01 06:56:01;;;;;;;6.43;3.90;;;;;;;;;;5087016;28;20020;-84
2022/07/01 06:58:26;;;;;;;6.38;3.72;;;;;;;;;;5089387;28;20032;-84
2022/07/01 07:00:52;;;;;;;5.57;3.90;;;;;;;;;;5088194;28;20379;-85
2022/07/01 07:03:18;;;;;;;5.45;3.60;;;;;;;;;;5083236;28;20467;-84
2022/07/01 07:05:43;;;;;;;5.18;3.45;;;;;;;;;;5080639;28;20020;-85
2022/07/01 07:08:08;;;;;;;6.22;4.00;;;;;;;;;;5084473;28;20474;-83
2022/07/01 07:10:34;;;;;;;5.38;3.45;;;;;;;;;;5083153;28;20035;-84
2022/07/01 07:12:59;;;;;;;7.20;3.88;;;;;;;;;;5088320;28;20030;-84
2022/07/01 07:15:25;;;;;;;7.03;3.90;;;;;;;;;;5088814;28;20375;-84
2022/07/01 07:17:50;;;;;;;6.30;4.20;;;;;;;;;;5090577;28;20028;-85
2022/07/01 07:20:16;;;;;;;7.53;4.03;;;;;;;;;;5090324;28;20106;-85
2022/07/01 07:22:42;;;;;;;5.57;3.72;;;;;;;;;;5090431;28;20017;-85
2022/07/01 07:25:08;;;;;;;6.00;3.85;;;;;;;;;;5089596;28;20030;-85
2022/07/01 07:27:33;;;;;;;8.07;3.97;;;;;;;;;;5090659;28;20020;-87
2022/07/01 07:29:59;;;;;;;7.47;4.75;;;;;;;;;;5088223;28;20401;-83
2022/07/01 07:32:24;;;;;;;6.88;3.65;;;;;;;;;;5088149;28;20548;-85
2022/07/01 07:34:49;;;;;;;7.55;3.63;;;;;;;;;;5091216;28;20077;-88
2022/07/01 07:37:15;;;;;;;6.22;3.60;;;;;;;;;;5087045;28;20045;-85
2022/07/01 07:39:40;;;;;;;4.50;3.28;;;;;;;;;;5087962;28;20020;-85
2022/07/01 07:42:06;;;;;;;6.18;3.83;;;;;;;;;;5090825;28;20449;-84
2022/07/01 07:44:32;;;;;;;8.35;4.20;;;;;;;;;;5091000;28;20024;-84
2022/07/01 07:46:57;;;;;;;4.50;3.88;;;;;;;;;;5089584;28;20025;-83
2022/07/01 07:49:24;;;;;;;6.82;4.47;;;;;;;;;;5090282;28;20076;-85
2022/07/01 07:51:50;;;;;;;6.90;4.03;;;;;;;;;;5094566;28;20031;-86
2022/07/01 07:54:16;;;;;;;7.43;4.38;;;;;;;;;;5094133;28;20059;-87
2022/07/01 07:56:41;;;;;;;6.22;4.43;;;;;;;;;;5093163;28;20024;-85
2022/07/01 07:59:07;;;;;;;5.22;4.18;;;;;;;;;;5094690;28;20069;-88
2022/07/01 08:01:32;;;;;;;4.85;4.28;;;;;;;;;;5094838;28;20035;-83
2022/07/01 08:03:58;;;;;;;5.65;3.90;;;;;;;;;;5094005;28;20031;-88
2022/07/01 08:06:23;;;;;;;5.40;4.10;;;;;;;;;;5093595;28;20506;-84
2022/07/01 08:08:49;;;;;;;6.97;4.25;;;;;;;;;;5093477;28;20024;-87
2022/07/01 08:11:14;;;;;;;6.78;4.90;;;;;;;;;;5092774;28;20032;-84
2022/07/01 08:13:40;;;;;;;6.30;4.63;;;;;;;;;;5093622;28;20028;-84
2022/07/01 08:16:06;;;;;;;6.95;4.32;;;;;;;;;;5094189;28;20102;-88
2022/07/01 08:18:31;;;;;;;5.65;4.10;;;;;;;;;;5093859;28;20024;-86
2022/07/01 08:20:57;;;;;;;6.05;4.10;;;;;;;;;;5093333;28;20103;-85
2022/07/01 08:23:23;;;;;;;6.30;4.20;;;;;;;;;;5094396;28;20023;-88
2022/07/01 08:25:49;;;;;;;5.95;4.32;;;;;;;;;;5092146;28;21686;-88
2022/07/01 08:28:15;;;;;;;6.30;4.20;;;;;;;;;;5093645;28;20032;-87
2022/07/01 08:30:40;;;;;;;6.60;4.18;;;;;;;;;;5093688;28;20049;-88
2022/07/01 08:33:06;;;;;;;5.75;4.10;;;;;;;;;;5094060;28;20028;-87
2022/07/01 08:35:31;;;;;;;8.63;4.55;;;;;;;;;;5091392;28;20020;-88
2022/07/01 08:37:57;;;;;;;6.57;4.18;;;;;;;;;;5092947;28;20031;-86
2022/07/01 08:40:30;;;;;;;5.97;3.88;;;;;;;;;;5092676;28;20032;-84
2022/07/01 08:43:00;;;;;;;5.75;3.40;;;;;;;;;;5088414;28;20502;-87
2022/07/01 08:45:30;;;;;;;5.70;3.60;;;;;;;;;;5090207;28;20035;-86
2022/07/01 08:48:02;;;;;;;;;;;;;;;;;;5092173;28;20494;-83
2022/07/01 08:50:35;;;;;;;7.18;3.28;;;;;;;;;;5090316;28;19923;-84
2022/07/01 08:53:01;;;;;;;6.95;3.47;;;;;;;;;;5091162;28;20051;-85
2022/07/01 08:55:28;;;;;;;5.25;3.63;;;;;;;;;;5092496;28;20020;-84
2022/07/01 08:57:53;;;;;;;6.72;4.28;;;;;;;;;;5091325;28;20111;-82
2022/07/01 09:00:20;;;;;;;8.32;3.75;;;;;;;;;;5092579;28;20107;-85
2022/07/01 09:02:56;;;;;;;5.35;3.78;;;;;;;;;;5090241;28;20244;-85
2022/07/01 09:05:23;;;;;;;4.53;3.30;;;;;;;;;;5091418;28;20027;-83
2022/07/01 09:07:55;;;;;;;3.92;3.30;;;;;;;;;;5089729;28;20101;-85
2022/07/01 09:10:21;;;;;;;9.00;3.50;;;;;;;;;;5091781;28;20052;-83
2022/07/01 09:12:47;;;;;;;4.47;2.78;;;;;;;;;;5092811;28;20161;-83
2022/07/01 09:15:30;;;;;;;3.75;2.60;;;;;;;;;;5091721;28;20022;-84
2022/07/01 09:18:05;;;;;;;4.25;2.97;;;;;;;;;;5091318;28;20467;-85
2022/07/01 09:20:38;;;;;;;3.13;2.60;;;;;;;;;;5090939;28;20378;-82
2022/07/01 09:23:17;;;;;;;4.88;2.67;;;;;;;;;;5086205;28;20487;-84
2022/07/01 09:25:47;;;;;;;3.55;2.58;;;;;;;;;;5091122;28;20452;-85
2022/07/01 09:28:20;;;;;;;3.40;2.30;;;;;;;;;;5091253;28;20024;-85
2022/07/01 09:30:49;;;;;;;4.50;2.60;;;;;;;;;;5091617;28;21157;-83
2022/07/01 09:33:17;;;;;;;4.47;3.00;;;;;;;;;;5091243;28;20023;-84
2022/07/01 09:35:45;;;;;;;3.67;3.37;;;;;;;;;;5088726;28;20024;-85
2022/07/01 09:38:13;;;;;;;3.72;2.88;;;;;;;;;;5092623;28;20169;-84
2022/07/01 09:40:59;;;;;;;3.38;2.50;;;;;;;;;;5089486;28;20062;-83
2022/07/01 09:43:27;;;;;;;5.53;2.85;;;;;;;;;;5091501;28;20032;-84
2022/07/01 09:45:53;;;;;;;3.75;3.10;;;;;;;;;;5091700;28;20024;-84
2022/07/01 09:48:19;;;;;;;4.55;2.80;;;;;;;;;;5087722;28;20040;-85
2022/07/01 09:50:45;;;;;;;4.68;3.10;;;;;;;;;;5090312;28;20168;-83
2022/07/01 09:53:13;;;;;;;4.10;3.03;;;;;;;;;;5084660;28;20051;-86
2022/07/01 09:55:39;;;;;;;5.57;2.83;;;;;;;;;;5090203;28;20024;-84
2022/07/01 09:58:05;;;;;;;4.40;3.00;;;;;;;;;;5088638;28;20035;-83
2022/07/01 10:00:34;;;;;;;3.80;2.35;;;;;;;;;;5088654;28;20423;-84
2022/07/01 10:03:04;;;;;;;4.40;2.90;;;;;;;;;;5088309;28;20096;-84
2022/07/01 10:05:33;;;;;;;3.78;2.50;;;;;;;;;;5088520;28;20742;-84
2022/07/01 10:08:22;;;;;;;3.72;2.28;;;;;;;;;;5090619;28;20026;-84
2022/07/01 10:11:02;;;;;;;2.97;2.00;;;;;;;;;;5088790;28;20040;-85
2022/07/01 10:13:33;;;;;;;3.22;1.85;;;;;;;;;;5090670;28;20519;-83
2022/07/01 10:16:00;;;;;;;3.17;2.00;;;;;;;;;;5088824;28;20024;-84
2022/07/01 10:18:27;;;;;;;2.92;2.00;;;;;;;;;;5090022;28;20146;-84
2022/07/01 10:20:55;;;;;;;2.60;2.25;;;;;;;;;;5087925;28;20023;-82
2022/07/01 10:23:23;;;;;;;3.03;2.38;;;;;;;;;;5085560;28;20409;-85
2022/07/01 10:25:51;;;;;;;4.03;2.40;;;;;;;;;;5085581;28;20029;-85
2022/07/01 10:28:25;;;;;;;3.40;2.35;;;;;;;;;;5088292;28;20031;-85
2022/07/01 10:31:01;;;;;;;4.22;2.63;;;;;;;;;;5088945;28;20032;-85
2022/07/01 10:33:30;;;;;;;3.80;1.92;;;;;;;;;;5089522;28;20020;-83
2022/07/01 10:36:09;;;;;;;1.90;1.48;;;;;;;;;;5089908;28;20703;-84
2022/07/01 10:38:35;;;;;;;2.35;1.58;;;;;;;;;;5086970;28;20024;-84
2022/07/01 10:41:09;;;;;;;3.35;1.60;;;;;;;;;;5089859;28;20459;-83
2022/07/01 10:43:37;;;;;;;2.20;1.45;;;;;;;;;;5086511;28;20020;-85
2022/07/01 10:46:03;;;;;;;1.95;1.73;;;;;;;;;;5089851;28;20430;-84
2022/07/01 10:48:31;;;;;;;2.28;1.60;;;;;;;;;;5088215;28;20027;-82
2022/07/01 10:50:57;;;;;;;2.08;1.40;;;;;;;;;;5088980;28;20109;-84
2022/07/01 10:53:23;;;;;;;1.63;1.40;;;;;;;;;;5090348;28;20099;-82
2022/07/01 10:55:51;;;;;;;2.50;1.67;;;;;;;;;;5091483;28;20027;-82
2022/07/01 10:58:20;;;;;;;3.17;1.90;;;;;;;;;;5089074;28;21143;-83
2022/07/01 11:00:51;;;;;;;6.40;2.40;;;;;;;;;;5087470;28;20031;-83
2022/07/01 11:03:16;;;;;;;1.92;1.70;;;;;;;;;;5105019;28;20047;-83
2022/07/01 11:05:45;;;;;;;2.30;1.50;;;;;;;;;;5090687;28;20020;-85
2022/07/01 11:08:11;;;;;;;2.63;2.00;;;;;;;;;;5090235;28;20032;-84
2022/07/01 11:10:39;;;;;;;2.75;1.92;;;;;;;;;;5085474;28;20542;-84
2022/07/01 11:13:05;;;;;;;3.25;1.85;;;;;;;;;;5090395;28;20035;-84
2022/07/01 11:15:31;;;;;;;2.53;1.70;;;;;;;;;;5088386;28;20028;-84
2022/07/01 11:17:58;;;;;;;2.10;1.63;;;;;;;;;;5090408;28;20048;-83
2022/07/01 11:20:25;;;;;;;1.75;1.65;;;;;;;;;;5088283;28;20024;-82
2022/07/01 11:22:52;;;;;;;2.63;1.95;;;;;;;;;;5089239;28;20026;-84
2022/07/01 11:25:19;;;;;;;2.50;2.17;;;;;;;;;;5086735;28;20051;-84
2022/07/01 11:27:50;;;;;;;2.75;1.95;;;;;;;;;;5088373;28;20353;-81
2022/07/01 11:30:16;;;;;;;6.93;1.88;;;;;;;;;;5088776;28;20391;-84
2022/07/01 11:32:44;;;;;;;2.08;1.70;;;;;;;;;;5093422;28;20022;-83
2022/07/01 11:41:18;;;;;;;2.05;1.60;;;;;;;;;;5089064;28;20544;-83
2022/07/01 11:43:44;;;;;;;2.20;1.65;;;;;;;;;;5092203;28;20024;-83
2022/07/01 11:46:09;;;;;;;2.20;1.80;;;;;;;;;;5090937;28;20078;-84
2022/07/01 11:48:41;;;;;;;4.28;2.30;;;;;;;;;;5093955;28;20016;-85
2022/07/01 11:51:10;;;;;;;2.90;1.77;;;;;;;;;;5087147;28;20035;-84
2022/07/01 11:53:36;;;;;;;2.15;1.83;;;;;;;;;;5093412;28;20067;-85
2022/07/01 11:56:02;;;;;;;1.92;1.50;;;;;;;;;;5093721;28;20024;-84
2022/07/01 11:58:44;;;;;;;3.28;1.90;;;;;;;;;;5090984;28;20037;-85
2022/07/01 12:01:10;;;;;;;1.92;1.60;;;;;;;;;;5090474;28;20031;-85
2022/07/01 12:03:37;;;;;;;1.60;1.48;;;;;;;;;;5090996;28;20369;-87
2022/07/01 12:06:03;;;;;;;1.60;1.50;;;;;;;;;;5092468;28;20023;-83
2022/07/01 12:08:29;;;;;;;1.73;1.55;;;;;;;;;;5092418;28;20129;-85
2022/07/01 12:10:57;;;;;;;2.30;1.75;;;;;;;;;;5092799;28;20112;-83
2022/07/01 12:13:24;;;;;;;2.85;1.70;;;;;;;;;;5090749;28;20518;-85
2022/07/01 12:15:49;;;;;;;2.25;1.63;;;;;;;;;;5093057;28;20471;-84
2022/07/01 12:18:16;;;;;;;1.75;1.50;;;;;;;;;;5094322;28;20031;-84
2022/07/01 12:20:54;;;;;;;1.70;1.40;;;;;;;;;;5092162;28;20031;-84
2022/07/01 12:23:20;;;;;;;5.03;1.70;;;;;;;;;;5089379;28;20147;-84
2022/07/01 12:25:52;;;;;;;4.32;1.90;;;;;;;;;;5088904;28;20124;-83
2022/07/01 12:28:28;;;;;;;2.97;1.52;;;;;;;;;;5091653;28;20085;-84
2022/07/01 12:31:08;;;;;;;9.02;3.50;;;;;;;;;;5088687;28;20475;-84
2022/07/01 12:33:38;;;;;;;5.13;2.10;;;;;;;;;;5091103;28;20028;-83
2022/07/01 12:36:06;;;;;;;1.50;1.33;;;;;;;;;;5092802;28;20028;-85
2022/07/01 12:38:32;;;;;;;1.40;1.30;;;;;;;;;;5091451;28;20055;-84
2022/07/01 12:40:58;;;;;;;5.82;1.80;;;;;;;;;;5088246;28;20086;-85
2022/07/01 12:43:28;;;;;;;1.73;1.25;;;;;;;;;;5091570;28;20028;-83
2022/07/01 12:45:58;;;;;;;2.03;1.60;;;;;;;;;;5093499;28;20097;-83
2022/07/01 12:48:24;;;;;;;1.90;1.40;;;;;;;;;;5090102;28;20024;-84
2022/07/01 12:50:53;;;;;;;2.25;1.80;;;;;;;;;;5091304;28;20035;-84
2022/07/01 12:53:20;;;;;;;1.40;1.30;;;;;;;;;;5093444;28;20118;-84
2022/07/01 12:55:56;;;;;;;1.52;1.40;;;;;;;;;;5092938;28;20035;-82
2022/07/01 12:58:24;;;;;;;3.67;1.52;;;;;;;;;;5086059;28;20020;-83
2022/07/01 13:00:55;;;;;;;3.53;1.92;;;;;;;;;;5091759;28;20077;-84
2022/07/01 13:03:25;;;;;;;2.63;1.50;;;;;;;;;;5085735;28;20028;-84
2022/07/01 13:05:52;;;;;;;2.00;1.75;;;;;;;;;;5090813;28;20028;-85
2022/07/01 13:08:18;;;;;;;2.17;1.63;;;;;;;;;;5089580;28;20531;-85
2022/07/01 13:10:44;;;;;;;1.38;1.20;;;;;;;;;;5088833;28;20029;-83
2022/07/01 13:13:10;;;;;;;1.50;1.40;;;;;;;;;;5090114;28;20023;-86
2022/07/01 13:15:36;;;;;;;7.88;2.25;;;;;;;;;;5086521;28;20103;-85
2022/07/01 13:18:02;;;;;;;3.58;1.90;;;;;;;;;;5090017;28;20020;-83
2022/07/01 13:20:28;;;;;;;3.35;1.80;;;;;;;;;;5086678;28;20024;-85
2022/07/01 13:22:54;;;;;;;4.28;1.88;;;;;;;;;;5092513;28;20024;-83
2022/07/01 13:25:20;;;;;;;3.55;1.95;;;;;;;;;;5089164;28;20028;-83
2022/07/01 13:27:45;;;;;;;2.83;1.95;;;;;;;;;;5091187;28;20107;-85
2022/07/01 13:30:12;;;;;;;2.60;1.80;;;;;;;;;;5091639;28;20383;-86
2022/07/01 13:32:39;;;;;;;2.85;1.85;;;;;;;;;;5091620;28;20036;-85
2022/07/01 13:35:05;;;;;;;2.28;1.77;;;;;;;;;;5092113;28;20386;-84
2022/07/01 13:37:31;;;;;;;2.78;2.00;;;;;;;;;;5092195;28;20024;-83
2022/07/01 13:39:57;;;;;;;3.50;2.15;;;;;;;;;;5092021;28;20034;-81
2022/07/01 13:42:22;;;;;;;2.58;1.98;;;;;;;;;;5092523;28;20028;-82
2022/07/01 13:44:51;;;;;;;2.85;1.98;;;;;;;;;;5088695;28;20054;-83
2022/07/01 13:47:17;;;;;;;2.00;1.70;;;;;;;;;;5089384;28;20023;-82
2022/07/01 13:49:42;;;;;;;2.17;1.98;;;;;;;;;;5091976;28;20027;-83
2022/07/01 13:52:08;;;;;;;2.20;2.00;;;;;;;;;;5091547;28;20032;-83
2022/07/01 13:54:34;;;;;;;3.42;2.20;;;;;;;;;;5069113;28;20396;-84
2022/07/01 13:56:59;;;;;;;2.67;1.83;;;;;;;;;;5069927;28;20016;-84
2022/07/01 13:59:25;;;;;;;3.58;2.10;;;;;;;;;;5071767;28;20025;-84
2022/07/01 14:01:50;;;;;;;3.40;1.90;;;;;;;;;;5070485;28;20047;-84
2022/07/01 14:04:16;;;;;;;2.25;1.92;;;;;;;;;;5070620;28;20111;-84
2022/07/01 14:06:41;;;;;;;6.32;2.50;;;;;;;;;;5071464;28;20048;-84
2022/07/01 14:09:07;;;;;;;2.30;1.90;;;;;;;;;;5071839;28;20033;-84
2022/07/01 14:11:32;;;;;;;1.98;1.70;;;;;;;;;;5071353;28;20540;-85
2022/07/01 14:13:58;;;;;;;5.68;2.95;;;;;;;;;;5070334;28;20423;-84
2022/07/01 14:16:23;;;;;;;2.20;1.95;;;;;;;;;;5070259;28;20020;-84
2022/07/01 14:18:50;;;;;;;4.80;2.30;;;;;;;;;;5067147;28;20110;-86
2022/07/01 14:21:17;;;;;;;2.20;2.00;;;;;;;;;;5068002;28;20037;-86
2022/07/01 14:23:43;;;;;;;3.05;2.10;;;;;;;;;;5069209;28;20058;-85
2022/07/01 14:26:08;;;;;;;3.05;2.05;;;;;;;;;;5063431;28;20024;-84
2022/07/01 14:28:34;;;;;;;2.95;1.80;;;;;;;;;;5069727;28;20062;-83
2022/07/01 14:30:59;;;;;;;2.67;1.80;;;;;;;;;;5070305;28;20032;-86
2022/07/01 14:33:25;;;;;;;2.47;2.00;;;;;;;;;;5069559;28;20107;-86
2022/07/01 14:35:51;;;;;;;2.10;1.85;;;;;;;;;;5070724;28;20464;-85
2022/07/01 14:38:16;;;;;;;16.42;3.50;;;;;;;;;;5069269;28;20052;-85
2022/07/01 14:40:42;;;;;;;2.22;1.88;;;;;;;;;;5068836;28;20051;-84
2022/07/01 14:43:08;;;;;;;2.40;2.05;;;;;;;;;;5067854;28;20028;-84
2022/07/01 14:45:37;;;;;;;2.33;1.70;;;;;;;;;;5069287;28;20108;-92
2022/07/01 14:48:02;;;;;;;7.20;2.40;;;;;;;;;;5070073;28;20020;-85
2022/07/01 14:50:28;;;;;;;3.75;2.00;;;;;;;;;;5067799;28;20075;-86
2022/07/01 14:52:53;;;;;;;2.15;1.80;;;;;;;;;;5069507;28;20067;-87
2022/07/01 14:55:18;;;;;;;2.90;2.40;;;;;;;;;;5091057;28;20041;-87
2022/07/01 14:57:44;;;;;;;2.40;2.08;;;;;;;;;;5090949;28;20031;-86